Time;durP1;ratioP1;P1;durP2;ratioP2;P2;SDS_P1;SDS_P2;PMS_P1;PMS_P2;Temp;Humidity;BMP_temperature;BMP_pressure;BME280_temperature;BME280_humidity;BME280_pressure;Samples;Min_cycle;Max_cycle;Signal;HPM_P1;HPM_P2
2023/04/29 00:01:16;;;;;;;50.05;30.75;;;;;;;10.97;80.71;99932.78;10162641;29;20044;-74
2023/04/29 00:06:21;;;;;;;52.50;32.15;;;;;;;10.96;81.42;99934.63;10153193;29;20083;-76
2023/04/29 00:11:24;;;;;;;56.22;31.10;;;;;;;11.31;80.28;99932.47;10169688;29;20051;-74
2023/04/29 00:16:27;;;;;;;52.75;31.65;;;;;;;11.17;80.44;99934.56;10170285;29;20064;-73
2023/04/29 00:21:32;;;;;;;54.45;29.05;;;;;;;10.98;81.07;99947.94;10169748;29;20048;-74
2023/04/29 00:26:34;;;;;;;58.70;31.58;;;;;;;10.96;80.44;99940.00;10149890;29;20053;-73
2023/04/29 00:31:37;;;;;;;53.72;32.20;;;;;;;10.49;82.05;99944.22;10169204;29;20047;-75
2023/04/29 00:36:42;;;;;;;57.72;33.53;;;;;;;10.79;81.38;99957.63;10170077;29;20044;-74
2023/04/29 00:41:45;;;;;;;56.60;32.30;;;;;;;10.86;81.00;99957.06;10152399;29;20075;-73
2023/04/29 00:46:47;;;;;;;60.55;34.22;;;;;;;10.87;81.24;99959.63;10153068;29;20075;-78
2023/04/29 00:51:53;;;;;;;57.33;33.70;;;;;;;10.98;80.59;99969.44;10169555;29;20178;-73
2023/04/29 00:56:58;;;;;;;64.40;35.88;;;;;;;10.56;82.38;99970.41;10169567;29;20048;-74
2023/04/29 01:02:02;;;;;;;61.55;34.47;;;;;;;10.66;82.72;99980.34;10174068;29;20118;-76
2023/04/29 01:07:17;;;;;;;62.90;33.95;;;;;;;10.46;83.31;99982.94;10150506;29;20465;-74
2023/04/29 01:12:26;;;;;;;63.10;35.08;;;;;;;10.39;83.72;99992.50;10148166;29;20053;-76
2023/04/29 01:17:36;;;;;;;66.63;32.30;;;;;;;10.42;82.73;99994.06;10151137;29;20056;-76
2023/04/29 01:22:41;;;;;;;58.97;32.95;;;;;;;10.50;82.00;99999.63;10147034;29;20530;-77
2023/04/29 01:27:54;;;;;;;62.55;36.05;;;;;;;10.25;83.77;100003.56;10166453;29;20461;-76
2023/04/29 01:33:00;;;;;;;;;;;;;;;9.91;84.96;100006.44;10141675;29;20049;-77
2023/04/29 01:38:17;;;;;;;73.65;37.15;;;;;;;10.44;82.55;100010.91;10165586;29;20121;-78
2023/04/29 01:43:24;;;;;;;77.88;38.50;;;;;;;10.44;83.53;100010.91;10145785;29;20127;-75
2023/04/29 01:48:30;;;;;;;100.97;43.55;;;;;;;10.17;85.72;100023.00;10150247;29;20095;-78
2023/04/29 01:53:33;;;;;;;94.07;41.97;;;;;;;10.15;85.16;100030.38;10155695;29;20047;-77
2023/04/29 01:58:37;;;;;;;105.45;46.40;;;;;;;10.29;85.44;100032.72;10141077;29;20072;-78
2023/04/29 02:04:05;;;;;;;91.93;40.30;;;;;;;10.01;86.73;100036.03;10150552;29;20063;-76
2023/04/29 02:09:08;;;;;;;109.88;46.30;;;;;;;9.96;86.70;100040.97;10135760;29;20076;-78
2023/04/29 02:14:13;;;;;;;113.57;48.10;;;;;;;9.59;88.01;100043.97;10140300;29;20078;-78
2023/04/29 02:19:18;;;;;;;103.68;43.72;;;;;;;9.81;87.96;100046.56;10148805;29;20045;-78
2023/04/29 02:24:21;;;;;;;103.93;41.22;;;;;;;9.96;87.36;100055.22;10140586;29;20046;-78
2023/04/29 02:29:28;;;;;;;81.53;37.28;;;;;;;9.77;87.67;100060.38;10147785;29;20416;-77
2023/04/29 02:34:32;;;;;;;66.90;32.40;;;;;;;9.98;86.35;100055.91;10149170;29;20072;-77
2023/04/29 02:39:35;;;;;;;69.22;34.80;;;;;;;9.78;86.51;100057.56;10161520;29;20045;-78
2023/04/29 02:44:40;;;;;;;65.22;32.85;;;;;;;9.48;86.82;100071.66;10161153;29;20037;-78
2023/04/29 02:49:43;;;;;;;71.05;33.75;;;;;;;9.62;86.83;100083.94;10147327;29;20055;-75
2023/04/29 02:54:47;;;;;;;72.45;35.47;;;;;;;9.94;85.78;100078.63;10137954;29;20052;-75
2023/04/29 02:59:51;;;;;;;73.65;33.60;;;;;;;9.90;86.08;100079.84;10142995;29;20056;-75
2023/04/29 03:04:54;;;;;;;72.35;34.78;;;;;;;9.83;86.42;100082.16;10140176;29;20071;-75
2023/04/29 03:09:57;;;;;;;67.50;33.55;;;;;;;9.33;88.14;100095.22;10165448;29;20040;-73
2023/04/29 03:15:01;;;;;;;82.65;36.90;;;;;;;9.67;87.32;100093.31;10170859;29;20048;-75
2023/04/29 03:20:06;;;;;;;77.60;37.28;;;;;;;9.51;88.40;100098.22;10138658;29;20052;-75
2023/04/29 03:25:10;;;;;;;79.63;38.03;;;;;;;9.26;89.46;100099.34;10159294;29;20044;-76
2023/04/29 03:30:15;;;;;;;76.82;36.97;;;;;;;9.45;88.92;100102.25;10163917;23;20041;-74
2023/04/29 03:35:24;;;;;;;78.03;36.40;;;;;;;9.53;88.83;100104.31;10194912;29;20044;-77
2023/04/29 03:40:47;;;;;;;78.53;37.28;;;;;;;9.64;88.53;100106.97;10200198;29;20052;-77
2023/04/29 03:45:53;;;;;;;81.50;38.40;;;;;;;9.65;89.02;100113.19;10148597;29;20062;-77
2023/04/29 03:50:59;;;;;;;79.40;35.63;;;;;;;9.86;87.96;100119.50;10151188;29;20051;-76
2023/04/29 03:56:02;;;;;;;89.50;38.92;;;;;;;9.97;87.87;100121.31;10155174;29;20068;-77
2023/04/29 04:01:07;;;;;;;91.30;41.67;;;;;;;9.97;87.79;100134.72;10153183;29;20122;-78
2023/04/29 04:06:16;;;;;;;89.50;41.40;;;;;;;9.96;87.78;100140.22;10152390;29;20095;-77
2023/04/29 04:11:20;;;;;;;87.80;42.40;;;;;;;10.05;87.49;100152.88;10170395;29;20055;-76
2023/04/29 04:16:36;;;;;;;90.57;43.40;;;;;;;9.91;87.65;100151.34;10151998;29;20076;-77
2023/04/29 04:21:39;;;;;;;84.20;41.38;;;;;;;9.92;87.62;100163.75;10155133;29;20500;-79
2023/04/29 04:26:44;;;;;;;88.40;42.45;;;;;;;9.88;87.50;100170.38;10151693;29;20055;-77
2023/04/29 04:32:02;;;;;;;84.63;41.45;;;;;;;9.89;87.53;100182.78;10146089;29;20052;-77
2023/04/29 04:37:07;;;;;;;81.07;39.78;;;;;;;9.91;87.54;100189.75;10156088;29;20410;-78
2023/04/29 04:42:10;;;;;;;73.88;39.25;;;;;;;9.83;87.30;100199.34;10159709;29;20430;-78
2023/04/29 04:47:15;;;;;;;82.10;40.40;;;;;;;9.51;88.12;100208.16;10149072;29;20468;-79
2023/04/29 04:52:30;;;;;;;84.50;40.75;;;;;;;9.46;88.12;100216.56;10158270;29;20460;-77
2023/04/29 04:57:57;;;;;;;85.78;42.42;;;;;;;9.72;87.55;100216.31;10172258;29;20100;-77
2023/04/29 05:03:02;;;;;;;90.72;44.83;;;;;;;9.72;87.61;100224.38;10155491;29;20044;-78
2023/04/29 05:08:05;;;;;;;93.28;45.03;;;;;;;9.61;87.59;100240.47;10160819;29;20099;-78
2023/04/29 05:13:14;;;;;;;81.78;41.90;;;;;;;9.49;87.93;100244.97;10161096;29;20068;-79
2023/04/29 05:18:19;;;;;;;92.22;41.55;;;;;;;9.72;88.07;100253.88;10161522;29;20717;-76
2023/04/29 05:23:24;;;;;;;94.13;43.47;;;;;;;9.59;87.92;100258.50;10165583;29;20044;-79
2023/04/29 05:28:27;;;;;;;96.55;44.63;;;;;;;9.58;87.22;100254.13;10157449;29;20044;-76
2023/04/29 05:33:33;;;;;;;87.07;42.40;;;;;;;9.84;87.58;100258.25;10171901;29;20578;-79
2023/04/29 05:38:36;;;;;;;94.10;43.45;;;;;;;9.80;87.41;100267.53;10146777;29;20048;-77
2023/04/29 05:43:41;;;;;;;95.25;45.20;;;;;;;9.90;87.20;100270.34;10152711;29;20040;-78
2023/04/29 05:48:45;;;;;;;93.65;45.33;;;;;;;9.71;87.39;100279.00;10159229;29;20044;-77
2023/04/29 05:53:48;;;;;;;86.15;41.08;;;;;;;9.96;86.97;100279.75;10167466;29;20048;-78
2023/04/29 05:58:51;;;;;;;89.78;42.75;;;;;;;9.96;86.72;100295.88;10176028;29;20052;-78
2023/04/29 06:03:55;;;;;;;78.10;40.67;;;;;;;9.79;86.25;100299.81;10159850;29;20412;-78
2023/04/29 06:09:33;;;;;;;79.22;40.67;;;;;;;9.99;86.47;100312.56;10151283;29;20048;-77
2023/04/29 06:14:37;;;;;;;75.55;39.85;;;;;;;10.10;86.30;100323.28;10126760;29;20120;-79
2023/04/29 06:19:41;;;;;;;77.75;40.00;;;;;;;10.11;86.13;100335.72;10132938;29;20503;-75
2023/04/29 06:24:46;;;;;;;73.18;41.42;;;;;;;9.99;85.51;100343.91;10115184;29;20159;-76
2023/04/29 06:29:54;;;;;;;64.65;35.05;;;;;;;10.25;85.72;100357.94;10115660;29;20544;-76
2023/04/29 06:34:58;;;;;;;59.25;34.83;;;;;;;10.53;85.92;100356.53;10120837;29;20055;-76
2023/04/29 06:40:10;;;;;;;41.88;25.95;;;;;;;10.58;85.02;100359.72;10143931;29;20051;-76
2023/04/29 06:45:31;;;;;;;50.22;28.80;;;;;;;10.66;85.18;100378.75;10207915;29;20214;-76
2023/04/29 06:50:50;;;;;;;65.35;39.60;;;;;;;10.77;84.73;100385.94;10129695;29;20048;-77
2023/04/29 06:55:53;;;;;;;72.68;40.95;;;;;;;10.91;84.42;100384.78;10129266;29;20055;-77
2023/04/29 07:00:56;;;;;;;71.30;41.15;;;;;;;11.00;83.50;100403.72;10136840;29;20515;-77
2023/04/29 07:06:00;;;;;;;68.47;42.05;;;;;;;11.07;81.99;100401.34;10134627;29;20179;-76
2023/04/29 07:11:04;;;;;;;67.30;39.75;;;;;;;11.01;80.21;100413.47;10117433;29;20204;-78
2023/04/29 07:16:15;;;;;;;69.75;40.95;;;;;;;10.89;79.81;100419.00;10124004;29;20529;-76
2023/04/29 07:21:19;;;;;;;63.85;39.50;;;;;;;10.74;79.35;100435.41;10135878;29;20500;-77
2023/04/29 07:26:22;;;;;;;69.18;41.03;;;;;;;10.73;78.32;100444.44;10122052;29;20052;-76
2023/04/29 07:31:27;;;;;;;67.57;39.65;;;;;;;10.77;78.44;100443.19;10134615;29;20068;-77
2023/04/29 07:36:32;;;;;;;65.65;37.90;;;;;;;11.06;77.26;100458.81;10120926;29;20596;-78
2023/04/29 07:41:36;;;;;;;65.07;38.15;;;;;;;11.09;76.98;100461.25;10125910;29;20044;-76
2023/04/29 07:46:39;;;;;;;68.28;41.85;;;;;;;11.12;76.14;100461.00;10129868;29;20044;-79
2023/04/29 07:51:44;;;;;;;70.50;41.15;;;;;;;11.27;75.20;100467.84;10139980;29;20085;-79
2023/04/29 07:56:48;;;;;;;66.50;39.83;;;;;;;11.47;75.37;100474.22;10135520;29;20067;-77
2023/04/29 08:01:52;;;;;;;67.57;41.72;;;;;;;11.44;74.34;100479.88;10139037;29;20519;-78
2023/04/29 08:06:57;;;;;;;62.67;40.65;;;;;;;11.47;73.58;100489.53;10122009;29;20056;-78
2023/04/29 08:12:01;;;;;;;65.18;39.97;;;;;;;11.55;73.08;100508.56;10137537;29;20048;-78
2023/04/29 08:17:04;;;;;;;66.70;41.25;;;;;;;11.79;73.21;100512.88;10127747;29;20130;-77
2023/04/29 08:22:10;;;;;;;63.72;40.40;;;;;;;12.00;74.73;100516.44;10139300;29;20048;-78
2023/04/29 08:27:13;;;;;;;61.53;39.15;;;;;;;11.88;70.61;100534.50;10127645;29;20056;-78
2023/04/29 08:32:16;;;;;;;61.42;37.15;;;;;;;12.10;70.53;100538.06;10137140;29;20047;-77
2023/04/29 08:37:21;;;;;;;58.63;37.08;;;;;;;12.61;72.60;100545.34;10134212;29;20052;-78
2023/04/29 08:42:33;;;;;;;53.35;37.25;;;;;;;12.90;69.11;100542.81;10129566;29;20150;-77
2023/04/29 08:47:37;;;;;;;53.40;36.72;;;;;;;13.14;68.98;100555.09;10116034;29;20124;-77
2023/04/29 08:52:42;;;;;;;50.25;36.70;;;;;;;13.36;66.77;100554.03;10126048;29;20104;-77
2023/04/29 08:57:47;;;;;;;46.63;32.78;;;;;;;13.90;65.91;100552.69;10128897;29;20048;-78
2023/04/29 09:02:53;;;;;;;40.75;31.02;;;;;;;14.08;65.30;100560.94;10133522;29;20067;-78
2023/04/29 09:08:01;;;;;;;43.40;30.38;;;;;;;14.32;65.68;100558.66;10130376;29;20072;-78
2023/04/29 09:13:04;;;;;;;39.28;29.00;;;;;;;14.64;62.64;100562.88;10134819;29;20135;-77
2023/04/29 09:18:07;;;;;;;34.85;27.73;;;;;;;14.37;61.17;100564.47;10127988;29;20059;-77
2023/04/29 09:23:12;;;;;;;36.90;27.30;;;;;;;14.30;61.93;100573.28;10139311;29;20048;-77
2023/04/29 09:28:16;;;;;;;33.65;24.92;;;;;;;14.46;59.51;100573.59;10145262;29;20052;-77
2023/04/29 09:33:19;;;;;;;34.63;25.38;;;;;;;14.63;58.01;100577.41;10142596;29;20515;-74
2023/04/29 09:38:23;;;;;;;36.05;25.13;;;;;;;14.76;58.16;100586.03;10138221;29;20134;-77
2023/04/29 09:43:26;;;;;;;33.85;24.77;;;;;;;15.11;57.01;100586.34;10139473;29;20578;-77
2023/04/29 09:48:34;;;;;;;24.33;20.20;;;;;;;15.00;55.40;100573.84;10138321;29;20135;-78
2023/04/29 09:53:38;;;;;;;23.52;16.45;;;;;;;14.95;54.88;100595.09;10137053;29;20084;-78
2023/04/29 09:58:41;;;;;;;24.55;17.10;;;;;;;15.38;54.56;100585.53;10122665;29;20067;-77
2023/04/29 10:03:45;;;;;;;22.00;16.90;;;;;;;15.71;53.53;100600.28;10115351;29;20139;-78
2023/04/29 10:08:51;;;;;;;22.27;17.70;;;;;;;15.41;54.79;100606.88;10126051;29;20104;-76
2023/04/29 10:13:55;;;;;;;24.23;18.67;;;;;;;15.02;54.90;100620.53;10147988;29;20056;-78
2023/04/29 10:19:02;;;;;;;22.60;17.02;;;;;;;14.85;55.14;100622.16;10135032;29;20055;-77
2023/04/29 10:24:09;;;;;;;24.55;18.70;;;;;;;14.78;54.95;100627.31;10136426;29;21135;-79
2023/04/29 10:29:14;;;;;;;28.98;19.23;;;;;;;14.27;56.19;100635.72;10136447;29;20121;-77
2023/04/29 10:34:17;;;;;;;26.50;20.60;;;;;;;14.14;56.45;100641.41;10139300;29;20072;-76
2023/04/29 10:39:31;;;;;;;23.63;19.70;;;;;;;14.22;55.41;100636.16;10134921;29;20052;-77
2023/04/29 10:45:13;;;;;;;24.27;19.38;;;;;;;14.56;55.22;100622.22;10133572;29;20099;-77
2023/04/29 10:50:16;;;;;;;25.75;20.42;;;;;;;14.53;54.98;100628.75;10133959;29;20150;-77
2023/04/29 10:55:20;;;;;;;28.55;20.27;;;;;;;14.20;56.05;100635.44;10134337;29;20048;-77
2023/04/29 11:00:26;;;;;;;30.13;20.50;;;;;;;14.04;56.72;100637.84;10134298;29;20091;-76
2023/04/29 11:05:31;;;;;;;27.52;20.23;;;;;;;14.71;54.87;100636.16;10110873;29;20513;-76
2023/04/29 11:10:37;;;;;;;27.73;18.77;;;;;;;15.41;54.50;100628.53;10134224;29;20077;-76
2023/04/29 11:15:40;;;;;;;21.90;17.27;;;;;;;16.28;50.88;100627.13;10135299;29;20044;-76
2023/04/29 11:21:14;;;;;;;20.92;15.95;;;;;;;16.68;49.71;100633.91;10113145;29;20127;-78
2023/04/29 11:26:20;;;;;;;21.98;16.38;;;;;;;16.45;50.00;100638.97;10127346;29;20048;-78
2023/04/29 11:31:27;;;;;;;18.92;14.10;;;;;;;15.78;50.21;100646.59;10120121;29;20047;-76
2023/04/29 11:36:31;;;;;;;20.25;14.73;;;;;;;15.55;50.82;100648.81;10130206;29;20111;-78
2023/04/29 11:41:37;;;;;;;21.58;14.88;;;;;;;15.57;50.60;100641.41;10131732;29;20043;-78
2023/04/29 11:46:40;;;;;;;15.00;12.43;;;;;;;15.90;50.80;100650.78;10133992;29;20526;-76
2023/04/29 11:51:43;;;;;;;22.13;13.80;;;;;;;17.03;48.32;100644.66;10126481;29;20475;-78
2023/04/29 11:56:47;;;;;;;19.30;14.10;;;;;;;17.37;46.73;100645.72;10129471;29;20204;-74
2023/04/29 12:01:51;;;;;;;18.95;14.35;;;;;;;17.13;46.70;100651.84;10130694;29;20048;-76
2023/04/29 12:06:56;;;;;;;19.33;13.40;;;;;;;17.41;46.25;100671.53;10127512;29;20052;-74
2023/04/29 12:12:00;;;;;;;16.60;12.68;;;;;;;18.19;44.60;100659.59;10130024;29;20054;-76
2023/04/29 12:17:04;;;;;;;15.60;11.75;;;;;;;17.50;45.36;100669.69;10131825;29;20396;-77
2023/04/29 12:22:07;;;;;;;19.25;13.30;;;;;;;16.91;47.10;100666.78;10127753;29;20188;-75
2023/04/29 12:27:11;;;;;;;15.52;12.20;;;;;;;16.31;47.87;100659.34;10125060;29;20048;-75
2023/04/29 12:32:17;;;;;;;16.63;12.75;;;;;;;15.55;48.78;100679.50;10133538;29;20134;-75
2023/04/29 12:37:21;;;;;;;19.45;14.95;;;;;;;15.73;49.24;100678.69;10124122;29;20044;-77
2023/04/29 12:42:32;;;;;;;17.67;14.55;;;;;;;15.50;49.29;100676.38;10122744;29;20112;-74
2023/04/29 12:47:35;;;;;;;20.02;15.35;;;;;;;15.14;50.70;100678.91;10143216;29;20046;-75
2023/04/29 12:52:39;;;;;;;19.58;15.18;;;;;;;14.86;51.64;100690.63;10131882;29;20063;-75
2023/04/29 12:57:43;;;;;;;17.92;14.77;;;;;;;14.78;51.50;100686.81;10138618;29;20535;-74
2023/04/29 13:02:46;;;;;;;18.48;14.35;;;;;;;15.50;51.65;100686.34;10137682;29;20052;-77
2023/04/29 13:07:50;;;;;;;16.83;14.02;;;;;;;15.92;51.33;100681.28;10139407;29;20056;-75
2023/04/29 13:12:54;;;;;;;24.25;13.20;;;;;;;15.95;49.34;100693.66;10140182;29;20091;-75
2023/04/29 13:17:57;;;;;;;14.60;11.77;;;;;;;15.78;49.68;100689.91;10131825;29;20098;-76
2023/04/29 13:23:00;;;;;;;15.52;11.32;;;;;;;15.53;50.20;100691.47;10129531;29;20420;-75
2023/04/29 13:28:05;;;;;;;15.43;11.80;;;;;;;15.03;50.97;100695.31;10139491;29;20056;-74
2023/04/29 13:33:08;;;;;;;17.73;11.98;;;;;;;14.91;51.24;100702.72;10132572;29;20078;-77
2023/04/29 13:38:16;;;;;;;16.67;10.73;;;;;;;15.06;51.73;100692.31;10130266;29;20063;-75
2023/04/29 13:43:20;;;;;;;14.38;10.30;;;;;;;15.05;50.35;100699.53;10137090;29;20112;-77
2023/04/29 13:48:39;;;;;;;11.60;9.10;;;;;;;14.67;51.51;100695.03;10138878;29;20060;-75
2023/04/29 13:53:45;;;;;;;16.90;9.27;;;;;;;14.51;51.63;100698.34;10133968;29;20095;-76
2023/04/29 13:58:52;;;;;;;14.57;9.52;;;;;;;14.48;51.71;100698.63;10135213;29;20059;-77
2023/04/29 14:04:15;;;;;;;11.73;9.73;;;;;;;14.95;50.57;100701.44;10132029;29;20059;-76
2023/04/29 14:09:18;;;;;;;11.82;7.75;;;;;;;15.58;49.79;100706.25;10136688;29;20059;-77
2023/04/29 14:14:23;;;;;;;8.50;7.53;;;;;;;15.92;46.79;100702.94;10111843;29;20064;-76
2023/04/29 14:19:25;;;;;;;10.90;7.97;;;;;;;16.38;45.57;100695.69;10132058;29;20051;-75
2023/04/29 14:24:28;;;;;;;13.13;7.60;;;;;;;16.76;46.06;100696.38;10138141;29;20074;-76
2023/04/29 14:29:33;;;;;;;11.00;8.40;;;;;;;17.62;44.80;100701.00;10127238;29;20064;-76
2023/04/29 14:34:35;;;;;;;10.85;8.52;;;;;;;18.44;43.81;100704.84;10134737;29;20427;-78
2023/04/29 14:39:38;;;;;;;10.05;8.38;;;;;;;19.47;41.82;100712.41;10139306;29;20160;-76
2023/04/29 14:44:42;;;;;;;8.57;7.55;;;;;;;19.53;40.92;100719.03;10129942;29;20048;-76
2023/04/29 14:49:45;;;;;;;9.27;6.95;;;;;;;18.32;41.88;100717.91;10133594;29;20052;-76
2023/04/29 14:54:48;;;;;;;7.43;6.28;;;;;;;16.96;43.86;100722.28;10129443;29;20052;-75
2023/04/29 14:59:52;;;;;;;10.25;6.50;;;;;;;17.08;43.96;100731.00;10134357;29;20419;-76
2023/04/29 15:04:55;;;;;;;8.23;6.57;;;;;;;16.40;44.49;100736.19;10139715;29;20063;-76
2023/04/29 15:09:58;;;;;;;7.97;6.47;;;;;;;15.89;45.61;100739.31;10141468;29;20052;-77
2023/04/29 15:15:03;;;;;;;8.65;7.00;;;;;;;15.43;47.24;100741.06;10122527;29;20063;-77
2023/04/29 15:20:08;;;;;;;9.65;7.40;;;;;;;16.41;46.80;100744.16;10134933;29;20056;-78
2023/04/29 15:25:11;;;;;;;9.50;5.78;;;;;;;18.74;41.87;100729.69;10135580;29;20051;-76
2023/04/29 15:30:16;;;;;;;10.10;5.97;;;;;;;19.27;38.55;100728.31;10133575;29;20177;-76
2023/04/29 15:35:19;;;;;;;5.88;5.05;;;;;;;18.27;40.96;100738.47;10125327;29;20050;-77
2023/04/29 15:40:22;;;;;;;5.10;4.15;;;;;;;17.18;42.18;100749.97;10126033;29;21663;-76
2023/04/29 15:45:26;;;;;;;6.55;4.93;;;;;;;16.17;43.11;100766.41;10126276;29;20054;-78
2023/04/29 15:50:29;;;;;;;6.00;4.60;;;;;;;15.22;44.94;100762.03;10055679;29;21344;-77
2023/04/29 15:55:33;;;;;;;5.10;4.28;;;;;;;15.49;44.88;100777.53;10129686;29;20054;-76
2023/04/29 16:00:38;;;;;;;4.53;4.10;;;;;;;15.42;45.28;100768.31;10134332;29;20047;-76
2023/04/29 16:05:40;;;;;;;6.13;4.32;;;;;;;15.43;45.65;100770.84;10131811;29;20114;-76
2023/04/29 16:10:44;;;;;;;6.00;4.60;;;;;;;15.52;46.40;100785.34;10131196;29;20787;-76
2023/04/29 16:15:48;;;;;;;8.88;4.97;;;;;;;15.33;46.49;100775.41;10133279;29;20063;-78
2023/04/29 16:20:51;;;;;;;6.28;4.72;;;;;;;15.03;46.81;100773.75;10128967;29;20075;-76
2023/04/29 16:25:54;;;;;;;8.45;5.80;;;;;;;15.03;47.38;100774.59;10134818;29;20583;-75
2023/04/29 16:30:58;;;;;;;10.80;6.40;;;;;;;14.92;47.44;100777.47;10134610;29;20056;-75
2023/04/29 16:36:01;;;;;;;8.75;6.32;;;;;;;14.52;49.15;100781.13;10129860;29;20044;-75
2023/04/29 16:41:05;;;;;;;10.45;6.28;;;;;;;14.60;49.68;100784.00;10141151;29;20131;-79
2023/04/29 16:46:09;;;;;;;11.55;5.70;;;;;;;14.43;49.08;100784.69;10135209;29;20127;-75
2023/04/29 16:51:12;;;;;;;8.40;5.97;;;;;;;14.20;48.72;100796.69;10138029;29;20589;-76
2023/04/29 16:56:15;;;;;;;8.23;5.95;;;;;;;14.15;49.35;100797.09;10144376;29;20064;-76
2023/04/29 17:01:20;;;;;;;8.25;5.97;;;;;;;14.19;49.53;100803.94;10135176;29;20198;-76
2023/04/29 17:06:24;;;;;;;6.45;5.78;;;;;;;14.14;50.27;100798.94;10139803;29;20056;-76
2023/04/29 17:11:27;;;;;;;9.80;5.90;;;;;;;13.83;51.08;100806.22;10132707;29;20554;-76
2023/04/29 17:16:31;;;;;;;8.40;5.78;;;;;;;13.77;51.13;100809.47;10131499;29;20059;-74
2023/04/29 17:21:35;;;;;;;8.90;6.25;;;;;;;13.96;51.10;100806.00;10135932;29;20051;-76
2023/04/29 17:26:38;;;;;;;7.88;6.32;;;;;;;14.01;51.92;100808.28;10141238;29;20098;-75
2023/04/29 17:31:46;;;;;;;7.60;6.30;;;;;;;15.00;48.65;100814.59;10140345;29;20051;-76
2023/04/29 17:36:50;;;;;;;8.05;5.95;;;;;;;16.50;47.93;100815.59;10140766;29;20060;-75
2023/04/29 17:41:53;;;;;;;7.68;5.72;;;;;;;16.77;45.13;100812.84;10134163;29;20088;-77
2023/04/29 17:46:57;;;;;;;7.60;5.55;;;;;;;15.44;46.10;100813.19;10142872;29;20056;-76
2023/04/29 17:52:02;;;;;;;7.90;6.00;;;;;;;14.26;49.10;100824.03;10130699;29;20052;-75
2023/04/29 17:57:05;;;;;;;8.68;5.70;;;;;;;14.20;49.45;100826.41;10137807;29;20512;-75
2023/04/29 18:02:09;;;;;;;10.60;5.40;;;;;;;14.11;49.98;100828.09;10128448;29;20117;-76
2023/04/29 18:07:13;;;;;;;7.72;5.75;;;;;;;14.03;50.42;100826.06;10134556;29;20080;-75
2023/04/29 18:12:15;;;;;;;8.82;5.95;;;;;;;13.76;50.90;100832.03;10130425;29;20052;-77
2023/04/29 18:17:19;;;;;;;8.60;5.63;;;;;;;13.44;51.46;100837.56;10134191;29;20063;-76
2023/04/29 18:22:22;;;;;;;8.23;5.15;;;;;;;13.16;50.91;100834.47;10138883;29;21230;-76
2023/04/29 18:27:25;;;;;;;7.70;5.35;;;;;;;13.10;50.82;100850.31;10137809;29;20054;-75
2023/04/29 18:32:29;;;;;;;8.32;5.03;;;;;;;13.02;50.83;100842.88;10137679;29;20177;-75
2023/04/29 18:37:32;;;;;;;6.80;5.68;;;;;;;12.89;51.03;100858.38;10131254;29;20051;-75
2023/04/29 18:42:35;;;;;;;12.35;5.10;;;;;;;12.65;51.67;100866.66;10136861;29;20629;-75
2023/04/29 18:47:39;;;;;;;6.85;5.10;;;;;;;12.49;51.92;100853.59;10141233;29;20578;-75
2023/04/29 18:52:42;;;;;;;8.85;5.15;;;;;;;12.26;52.36;100871.56;10136676;29;20064;-76
2023/04/29 18:57:45;;;;;;;6.05;5.25;;;;;;;12.09;52.71;100872.94;10139329;29;21405;-76
2023/04/29 19:02:49;;;;;;;5.90;4.60;;;;;;;11.90;53.22;100886.97;10135132;29;20063;-77
2023/04/29 19:07:52;;;;;;;6.70;4.68;;;;;;;11.81;53.29;100893.09;10133517;29;20500;-77
2023/04/29 19:12:55;;;;;;;8.38;5.20;;;;;;;11.68;53.81;100893.19;10120578;29;20100;-76
2023/04/29 19:17:59;;;;;;;9.32;5.55;;;;;;;11.59;54.13;100915.44;10129862;29;20063;-76
2023/04/29 19:23:02;;;;;;;10.40;5.53;;;;;;;11.50;54.48;100920.56;10132445;29;21281;-76
2023/04/29 19:28:05;;;;;;;8.88;5.10;;;;;;;11.39;54.81;100927.72;10109610;29;20558;-75
2023/04/29 19:33:09;;;;;;;10.82;5.70;;;;;;;11.24;55.11;100930.63;10131831;29;20063;-75
2023/04/29 19:38:13;;;;;;;9.57;5.25;;;;;;;11.17;55.64;100933.88;10125550;29;20052;-76
2023/04/29 19:43:15;;;;;;;22.15;6.72;;;;;;;11.09;55.74;100934.41;10129598;29;20114;-77
2023/04/29 19:48:20;;;;;;;7.32;4.88;;;;;;;10.99;56.17;100941.44;10129707;29;20591;-74
2023/04/29 19:53:22;;;;;;;7.85;5.28;;;;;;;10.86;56.30;100949.56;10130640;29;20134;-78
2023/04/29 19:58:25;;;;;;;9.45;5.53;;;;;;;10.81;56.81;100949.88;10119147;29;20056;-77
2023/04/29 20:03:30;;;;;;;9.75;5.68;;;;;;;10.67;57.51;100952.72;10128613;29;20044;-75
2023/04/29 20:08:33;;;;;;;10.10;5.40;;;;;;;10.51;58.18;100958.34;10132567;29;21222;-76
2023/04/29 20:13:36;;;;;;;8.73;5.47;;;;;;;10.32;58.77;100961.47;10124786;29;20131;-76
2023/04/29 20:18:40;;;;;;;9.73;6.38;;;;;;;10.23;59.41;100969.31;10126423;29;20044;-77
2023/04/29 20:23:43;;;;;;;10.07;6.28;;;;;;;10.05;60.02;100974.16;10122349;29;21231;-76
2023/04/29 20:28:46;;;;;;;10.32;7.15;;;;;;;9.92;60.67;100982.19;10112490;29;20599;-77
2023/04/29 20:33:50;;;;;;;11.65;7.00;;;;;;;9.87;61.15;100993.25;10126681;29;20059;-74
2023/04/29 20:38:53;;;;;;;16.58;7.85;;;;;;;9.80;61.58;101001.78;10132242;29;21619;-75
2023/04/29 20:43:57;;;;;;;12.73;6.88;;;;;;;9.64;62.42;101008.19;10132281;29;20528;-75
2023/04/29 20:49:05;;;;;;;12.90;7.00;;;;;;;9.64;62.85;101013.53;10131061;29;20059;-75
2023/04/29 20:54:08;;;;;;;8.82;6.32;;;;;;;9.59;63.34;101018.34;10135749;29;20139;-76
2023/04/29 20:59:11;;;;;;;8.35;6.78;;;;;;;9.56;63.82;101031.97;10129152;29;20059;-75
2023/04/29 21:04:15;;;;;;;11.75;5.70;;;;;;;9.49;64.17;101036.91;10117133;29;20526;-76
2023/04/29 21:09:18;;;;;;;8.18;5.75;;;;;;;9.42;64.47;101034.72;10115654;29;20540;-79
2023/04/29 21:14:21;;;;;;;11.93;6.00;;;;;;;9.37;64.62;101045.75;10126465;29;20052;-77
2023/04/29 21:19:25;;;;;;;9.20;5.50;;;;;;;9.32;64.84;101044.31;10172293;29;20044;-76
2023/04/29 21:24:30;;;;;;;9.65;6.38;;;;;;;9.24;65.06;101052.84;10169186;29;20108;-76
2023/04/29 21:29:39;;;;;;;9.57;5.50;;;;;;;9.23;65.30;101060.03;10170009;29;20048;-77
2023/04/29 21:34:44;;;;;;;7.85;5.85;;;;;;;9.28;65.32;101062.44;10169527;29;20123;-77
2023/04/29 21:39:46;;;;;;;9.27;6.18;;;;;;;9.40;65.25;101063.44;10167992;29;20048;-77
2023/04/29 21:44:49;;;;;;;7.68;5.18;;;;;;;9.42;65.19;101050.81;10163278;29;20048;-77
2023/04/29 21:49:54;;;;;;;7.90;5.65;;;;;;;9.48;65.06;101055.75;10167866;29;20040;-75
2023/04/29 21:54:57;;;;;;;8.70;6.20;;;;;;;9.53;64.78;101058.16;10164003;29;20048;-76
2023/04/29 22:00:00;;;;;;;9.48;6.53;;;;;;;9.48;64.77;101070.03;10146711;29;20147;-75
2023/04/29 22:05:05;;;;;;;10.50;5.40;;;;;;;9.33;64.78;101063.00;10160430;29;20045;-75
2023/04/29 22:10:09;;;;;;;6.03;5.28;;;;;;;9.22;65.11;101069.06;10163858;29;20100;-75
2023/04/29 22:15:11;;;;;;;7.78;5.75;;;;;;;9.00;65.51;101066.03;10159823;29;20143;-76
2023/04/29 22:20:31;;;;;;;9.50;4.82;;;;;;;8.96;65.84;101073.38;10158887;29;20104;-75
2023/04/29 22:25:34;;;;;;;6.97;5.20;;;;;;;8.90;65.69;101063.06;10158225;29;20131;-76
2023/04/29 22:30:37;;;;;;;10.60;5.97;;;;;;;8.88;65.89;101064.13;10169308;29;20079;-77
2023/04/29 22:35:41;;;;;;;8.18;5.25;;;;;;;8.81;65.86;101077.91;10156304;29;20045;-76
2023/04/29 22:40:49;;;;;;;8.13;4.65;;;;;;;8.83;66.05;101072.44;10167116;29;20123;-75
2023/04/29 22:45:52;;;;;;;7.50;4.97;;;;;;;8.81;65.85;101079.72;10173885;29;20076;-75
2023/04/29 22:50:58;;;;;;;7.35;5.13;;;;;;;8.64;66.05;101082.59;10164266;29;20040;-75
2023/04/29 22:56:02;;;;;;;10.00;5.45;;;;;;;8.50;66.50;101080.75;10148724;29;20076;-75
2023/04/29 23:01:04;;;;;;;6.03;5.00;;;;;;;8.46;66.45;101090.81;10166776;29;20066;-75
2023/04/29 23:06:09;;;;;;;7.28;5.85;;;;;;;8.34;67.07;101094.19;10162075;29;20147;-75